createdAt,value
2019-01-12T00:00:59.018Z,0.70
2019-01-12T00:03:49.924Z,0.70
2019-01-12T00:06:52.116Z,0.70
2019-01-12T00:09:42.604Z,0.70
2019-01-12T00:12:31.880Z,0.70
2019-01-12T00:15:25.244Z,0.70
2019-01-12T00:18:14.181Z,0.70
2019-01-12T00:21:06.852Z,0.70
2019-01-12T00:23:59.909Z,0.70
2019-01-12T00:26:52.643Z,0.70
2019-01-12T00:29:47.356Z,0.70
2019-01-12T00:32:45.405Z,0.70
2019-01-12T00:35:34.985Z,0.80
2019-01-12T00:38:25.992Z,0.80
2019-01-12T00:41:16.711Z,0.80
2019-01-12T00:44:06.900Z,0.80
2019-01-12T00:47:03.440Z,0.90
2019-01-12T00:49:52.611Z,0.80
2019-01-12T00:52:49.441Z,0.80
2019-01-12T00:55:40.564Z,0.80
2019-01-12T00:58:30.304Z,0.80
2019-01-12T01:01:19.708Z,0.90
2019-01-12T01:04:10.104Z,0.90
2019-01-12T01:07:00.716Z,0.90
2019-01-12T01:09:53.823Z,0.90
2019-01-12T01:12:57.280Z,0.90
2019-01-12T01:18:13.488Z,0.90
2019-01-12T01:21:02.835Z,1.00
2019-01-12T01:23:55.502Z,1.00
2019-01-12T01:26:49.772Z,1.00
2019-01-12T01:30:03.528Z,1.10
2019-01-12T01:32:55.979Z,1.00
2019-01-12T01:35:47.892Z,1.00
2019-01-12T01:38:36.255Z,1.00
2019-01-12T01:41:31.564Z,1.00
2019-01-12T01:44:23.994Z,1.00
2019-01-12T01:47:23.607Z,0.90
2019-01-12T01:50:14.721Z,1.00
2019-01-12T01:53:05.919Z,1.00
2019-01-12T01:56:08.001Z,1.00
2019-01-12T01:58:58.382Z,1.00
2019-01-12T02:01:46.755Z,1.00
2019-01-12T02:04:34.288Z,1.00
2019-01-12T02:07:23.248Z,1.10
2019-01-12T02:10:24.268Z,1.10
2019-01-12T02:13:14.052Z,1.10
2019-01-12T02:16:11.107Z,1.10
2019-01-12T02:18:59.568Z,1.20
2019-01-12T02:21:53.224Z,1.20
2019-01-12T02:24:48.948Z,1.20
2019-01-12T02:27:47.147Z,1.20
2019-01-12T02:30:33.429Z,1.10
2019-01-12T02:33:33.656Z,1.10
2019-01-12T02:36:30.056Z,1.10
2019-01-12T02:39:24.384Z,1.10
2019-01-12T02:42:17.334Z,1.20
2019-01-12T02:45:19.398Z,1.10
2019-01-12T02:48:15.000Z,1.10
2019-01-12T02:51:18.107Z,1.20
2019-01-12T02:54:08.286Z,1.20
2019-01-12T02:57:04.547Z,1.20
2019-01-12T03:00:03.602Z,1.20
2019-01-12T03:02:54.608Z,1.20
2019-01-12T03:05:46.982Z,1.20
2019-01-12T03:08:38.104Z,1.20
2019-01-12T03:11:27.580Z,1.20
2019-01-12T03:14:17.829Z,1.20
2019-01-12T03:17:08.257Z,1.10
2019-01-12T03:20:19.136Z,1.20
2019-01-12T03:23:19.158Z,1.30
2019-01-12T03:26:10.874Z,1.30
2019-01-12T03:28:59.428Z,1.30
2019-01-12T03:31:48.702Z,1.30
2019-01-12T03:34:44.819Z,1.30
2019-01-12T03:37:47.730Z,1.40
2019-01-12T03:40:36.835Z,1.30
2019-01-12T03:43:25.534Z,1.30
2019-01-12T03:46:28.223Z,1.30
2019-01-12T03:49:16.972Z,1.40
2019-01-12T03:52:11.665Z,1.40
2019-01-12T03:55:02.572Z,1.30
2019-01-12T03:57:53.193Z,1.30
2019-01-12T04:00:45.170Z,1.30
2019-01-12T04:03:36.031Z,1.30
2019-01-12T04:06:27.529Z,1.30
2019-01-12T04:09:18.354Z,1.40
2019-01-12T04:12:06.892Z,1.40
2019-01-12T04:14:57.610Z,1.30
2019-01-12T04:17:49.727Z,1.40
2019-01-12T04:20:37.639Z,1.40
2019-01-12T04:23:25.661Z,1.40
2019-01-12T04:26:12.977Z,1.40
2019-01-12T04:29:00.279Z,1.40
2019-01-12T04:31:47.758Z,1.40
2019-01-12T04:34:35.441Z,1.40
2019-01-12T04:37:22.794Z,1.40
2019-01-12T04:40:13.322Z,1.40
2019-01-12T04:43:00.822Z,1.40
2019-01-12T04:45:48.441Z,1.40
2019-01-12T04:48:35.849Z,1.40
2019-01-12T04:51:23.213Z,1.50
2019-01-12T04:54:10.897Z,1.40
2019-01-12T04:56:58.247Z,1.40
2019-01-12T04:59:45.771Z,1.50
2019-01-12T05:02:33.494Z,1.50
2019-01-12T05:05:21.038Z,1.50
2019-01-12T05:08:08.112Z,1.50
2019-01-12T05:10:55.232Z,1.50
2019-01-12T05:13:42.699Z,1.50
2019-01-12T05:16:30.735Z,1.50
2019-01-12T05:19:18.735Z,1.50
2019-01-12T05:22:06.331Z,1.50
2019-01-12T05:24:53.983Z,1.40
2019-01-12T05:27:41.489Z,1.40
2019-01-12T05:30:29.452Z,1.40
2019-01-12T05:33:17.149Z,1.40
2019-01-12T05:36:05.011Z,1.50
2019-01-12T05:38:52.243Z,1.50
2019-01-12T05:41:40.231Z,1.50
2019-01-12T05:44:27.924Z,1.50
2019-01-12T05:47:15.707Z,1.60
2019-01-12T05:50:03.386Z,1.60
2019-01-12T05:52:54.871Z,1.60
2019-01-12T05:55:42.697Z,1.60
2019-01-12T05:58:30.478Z,1.70
2019-01-12T06:01:18.392Z,1.70
2019-01-12T06:04:05.820Z,1.60
2019-01-12T06:06:53.183Z,1.70
2019-01-12T06:09:40.714Z,1.70
2019-01-12T06:12:27.771Z,1.70
2019-01-12T06:15:15.569Z,1.60
2019-01-12T06:18:03.187Z,1.70
2019-01-12T06:20:51.266Z,1.70
2019-01-12T06:23:38.877Z,1.70
2019-01-12T06:26:26.709Z,1.70
2019-01-12T06:29:14.374Z,1.70
2019-01-12T06:32:01.670Z,1.70
2019-01-12T06:35:13.275Z,1.70
2019-01-12T06:38:03.270Z,1.70
2019-01-12T06:40:57.259Z,1.70
2019-01-12T06:43:48.882Z,1.70
2019-01-12T06:46:43.670Z,1.70
2019-01-12T06:49:40.797Z,1.70
2019-01-12T06:52:30.809Z,1.60
2019-01-12T06:55:43.548Z,1.70
2019-01-12T06:58:54.215Z,1.70
2019-01-12T07:02:06.711Z,1.70
2019-01-12T07:04:45.405Z,1.70
2019-01-12T07:07:33.267Z,1.70
2019-01-12T07:10:20.936Z,1.80
2019-01-12T07:13:08.080Z,1.80
2019-01-12T07:15:56.014Z,1.70
2019-01-12T07:18:43.822Z,1.70
2019-01-12T07:21:31.424Z,1.70
2019-01-12T07:24:19.516Z,1.70
2019-01-12T07:27:07.402Z,1.70
2019-01-12T07:29:54.832Z,1.70
2019-01-12T07:32:42.649Z,1.80
2019-01-12T07:35:29.893Z,1.80
2019-01-12T07:38:17.562Z,1.80
2019-01-12T07:41:05.200Z,1.80
2019-01-12T07:43:52.678Z,1.80
2019-01-12T07:46:40.105Z,1.80
2019-01-12T07:49:27.510Z,1.80
2019-01-12T07:52:15.016Z,1.80
2019-01-12T07:55:02.477Z,1.80
2019-01-12T07:57:49.841Z,1.80
2019-01-12T08:00:37.356Z,1.80
2019-01-12T08:03:25.039Z,1.80
2019-01-12T08:06:12.669Z,1.90
2019-01-12T08:09:00.105Z,1.90
2019-01-12T08:11:47.770Z,1.90
2019-01-12T08:14:35.528Z,1.90
2019-01-12T08:17:22.826Z,2.00
2019-01-12T08:20:10.749Z,2.00
2019-01-12T08:22:58.376Z,2.00
2019-01-12T08:25:45.914Z,2.00
2019-01-12T08:28:33.032Z,2.00
2019-01-12T08:31:20.455Z,2.10
2019-01-12T08:34:07.655Z,2.20
2019-01-12T08:36:55.196Z,2.30
2019-01-12T08:39:43.013Z,2.20
2019-01-12T08:42:30.688Z,2.30
2019-01-12T08:45:18.194Z,2.30
2019-01-12T08:48:06.165Z,2.30
2019-01-12T08:50:53.598Z,2.30
2019-01-12T08:53:41.034Z,2.40
2019-01-12T08:56:28.576Z,2.50
2019-01-12T08:59:15.928Z,2.40
2019-01-12T09:02:03.628Z,2.40
2019-01-12T09:04:51.318Z,2.40
2019-01-12T09:07:38.779Z,2.40
2019-01-12T09:10:26.378Z,2.40
2019-01-12T09:13:14.344Z,2.40
2019-01-12T09:16:01.762Z,2.50
2019-01-12T09:18:49.029Z,2.60
2019-01-12T09:21:36.651Z,2.60
2019-01-12T09:24:24.291Z,2.50
2019-01-12T09:27:11.697Z,2.50
2019-01-12T09:29:58.878Z,2.50
2019-01-12T09:32:46.311Z,2.50
2019-01-12T09:35:34.031Z,2.60
2019-01-12T09:38:21.497Z,2.60
2019-01-12T09:41:08.981Z,2.60
2019-01-12T09:43:56.426Z,2.60
2019-01-12T09:46:44.148Z,2.70
2019-01-12T09:49:32.210Z,2.60
2019-01-12T09:52:20.269Z,2.60
2019-01-12T09:55:10.677Z,2.60
2019-01-12T09:57:59.620Z,2.60
2019-01-12T10:00:58.639Z,2.70
2019-01-12T10:03:47.373Z,2.70
2019-01-12T10:06:37.268Z,2.70
2019-01-12T10:09:31.053Z,2.80
2019-01-12T10:12:18.990Z,2.80
2019-01-12T10:15:10.278Z,2.80
2019-01-12T10:17:59.248Z,2.90
2019-01-12T10:20:49.863Z,2.90
2019-01-12T10:23:41.768Z,2.90
2019-01-12T10:26:30.844Z,2.90
2019-01-12T10:29:23.205Z,2.90
2019-01-12T10:32:12.352Z,2.90
2019-01-12T10:35:05.017Z,2.90
2019-01-12T10:37:57.555Z,3.00
2019-01-12T10:40:47.328Z,3.00
2019-01-12T10:43:36.183Z,3.10
2019-01-12T10:46:27.113Z,3.10
2019-01-12T10:49:15.335Z,3.20
2019-01-12T10:52:07.392Z,3.20
2019-01-12T10:54:56.961Z,3.20
2019-01-12T10:57:47.152Z,3.20
2019-01-12T11:00:39.260Z,3.10
2019-01-12T11:03:32.540Z,3.20
2019-01-12T11:06:22.933Z,3.20
2019-01-12T11:09:32.062Z,3.20
2019-01-12T11:12:12.186Z,3.20
2019-01-12T11:15:14.914Z,3.00
2019-01-12T11:18:26.608Z,3.00
2019-01-12T11:21:15.060Z,3.00
2019-01-12T11:24:04.931Z,3.00
2019-01-12T11:26:57.276Z,3.10
2019-01-12T11:29:48.174Z,3.10
2019-01-12T11:32:41.757Z,3.10
2019-01-12T11:35:54.872Z,3.20
2019-01-12T11:38:56.839Z,3.10
2019-01-12T11:41:52.449Z,3.10
2019-01-12T11:44:49.506Z,3.20
2019-01-12T11:47:38.988Z,3.20
2019-01-12T11:50:34.696Z,3.20
2019-01-12T11:53:44.142Z,3.20
2019-01-12T11:56:36.164Z,3.20
2019-01-12T11:59:28.104Z,3.30
2019-01-12T12:02:38.280Z,3.30
2019-01-12T12:05:35.809Z,3.30
2019-01-12T12:08:35.190Z,3.40
2019-01-12T12:11:27.471Z,3.40
2019-01-12T12:14:15.933Z,3.50
2019-01-12T12:17:12.078Z,3.40
2019-01-12T12:20:03.380Z,3.40
2019-01-12T12:22:51.516Z,3.40
2019-01-12T12:25:43.298Z,3.50
2019-01-12T12:28:30.366Z,3.50
2019-01-12T12:31:17.883Z,3.50
2019-01-12T12:34:06.313Z,3.60
2019-01-12T12:36:53.799Z,3.60
2019-01-12T12:39:41.144Z,3.60
2019-01-12T12:42:28.671Z,3.60
2019-01-12T12:45:21.346Z,3.50
2019-01-12T12:48:08.542Z,3.60
2019-01-12T12:50:56.175Z,3.60
2019-01-12T12:53:43.604Z,3.70
2019-01-12T12:56:31.332Z,3.60
2019-01-12T12:59:19.946Z,3.60
2019-01-12T13:02:07.503Z,3.60
2019-01-12T13:04:55.173Z,3.60
2019-01-12T13:07:43.007Z,3.60
2019-01-12T13:10:31.665Z,3.60
2019-01-12T13:13:19.435Z,3.60
2019-01-12T13:16:06.927Z,3.60
2019-01-12T13:18:54.431Z,3.60
2019-01-12T13:21:42.285Z,3.60
2019-01-12T13:24:29.789Z,3.70
2019-01-12T13:27:17.266Z,3.80
2019-01-12T13:30:07.907Z,3.80
2019-01-12T13:32:55.704Z,3.80
2019-01-12T13:35:43.359Z,3.90
2019-01-12T13:38:30.577Z,3.90
2019-01-12T13:41:18.322Z,3.90
2019-01-12T13:44:05.947Z,3.90
2019-01-12T13:46:54.683Z,3.80
2019-01-12T13:49:42.088Z,3.70
2019-01-12T13:52:29.537Z,3.70
2019-01-12T13:55:17.635Z,3.70
2019-01-12T13:58:05.433Z,3.70
2019-01-12T14:00:52.940Z,3.80
2019-01-12T14:03:40.877Z,3.80
2019-01-12T14:06:28.632Z,3.80
2019-01-12T14:09:16.229Z,3.80
2019-01-12T14:12:03.912Z,3.80
2019-01-12T14:14:51.617Z,3.80
2019-01-12T14:17:39.850Z,3.70
2019-01-12T14:20:32.995Z,3.70
2019-01-12T14:23:20.366Z,3.70
2019-01-12T14:26:07.552Z,3.60
2019-01-12T14:28:55.474Z,3.50
2019-01-12T14:31:43.063Z,3.50
2019-01-12T14:34:31.305Z,3.50
2019-01-12T14:37:19.054Z,3.60
2019-01-12T14:40:09.280Z,3.50
2019-01-12T14:42:57.315Z,3.50
2019-01-12T14:45:45.114Z,3.50
2019-01-12T14:48:32.900Z,3.50
2019-01-12T14:51:20.414Z,3.60
2019-01-12T14:54:08.158Z,3.60
2019-01-12T14:56:55.357Z,3.60
2019-01-12T14:59:43.037Z,3.60
2019-01-12T15:02:30.584Z,3.60
2019-01-12T15:05:19.828Z,3.60
2019-01-12T15:08:07.515Z,3.70
2019-01-12T15:10:55.369Z,3.60
2019-01-12T15:13:43.127Z,3.60
2019-01-12T15:16:30.466Z,3.70
2019-01-12T15:19:18.206Z,3.70
2019-01-12T15:22:05.924Z,3.70
2019-01-12T15:24:54.018Z,3.70
2019-01-12T15:27:42.584Z,3.70
2019-01-12T15:30:31.614Z,3.70
2019-01-12T15:33:19.325Z,3.80
2019-01-12T15:36:07.138Z,3.80
2019-01-12T15:38:54.504Z,3.80
2019-01-12T15:41:42.194Z,3.80
2019-01-12T15:44:29.850Z,3.70
2019-01-12T15:47:17.020Z,3.60
2019-01-12T15:50:06.068Z,3.70
2019-01-12T15:52:53.729Z,3.70
2019-01-12T15:55:42.014Z,3.70
2019-01-12T15:58:29.527Z,3.70
2019-01-12T16:01:17.449Z,3.70
2019-01-12T16:04:04.850Z,3.70
2019-01-12T16:06:52.455Z,3.60
2019-01-12T16:09:39.929Z,3.70
2019-01-12T16:12:27.117Z,3.70
2019-01-12T16:15:17.256Z,3.70
2019-01-12T16:18:04.589Z,3.70
2019-01-12T16:20:51.753Z,3.60
2019-01-12T16:23:39.165Z,3.50
2019-01-12T16:26:26.561Z,3.50
2019-01-12T16:29:14.383Z,3.50
2019-01-12T16:32:02.396Z,3.50
2019-01-12T16:34:49.743Z,3.50
2019-01-12T16:37:37.499Z,3.60
2019-01-12T16:40:27.531Z,3.60
2019-01-12T16:43:15.022Z,3.50
2019-01-12T16:46:02.442Z,3.50
2019-01-12T16:48:49.753Z,3.50
2019-01-12T16:51:37.402Z,3.60
2019-01-12T16:54:25.181Z,3.60
2019-01-12T16:57:12.848Z,3.60
2019-01-12T17:00:00.289Z,3.60
2019-01-12T17:02:47.594Z,3.60
2019-01-12T17:05:35.022Z,3.60
2019-01-12T17:08:22.581Z,3.60
2019-01-12T17:11:09.825Z,3.60
2019-01-12T17:13:57.801Z,3.60
2019-01-12T17:16:45.181Z,3.60
2019-01-12T17:19:32.779Z,3.60
2019-01-12T17:22:20.059Z,3.60
2019-01-12T17:25:07.879Z,3.60
2019-01-12T17:27:55.841Z,3.60
2019-01-12T17:30:43.466Z,3.60
2019-01-12T17:33:30.730Z,3.60
2019-01-12T17:36:17.951Z,3.60
2019-01-12T17:39:09.378Z,3.60
2019-01-12T17:41:57.290Z,3.50
2019-01-12T17:44:44.753Z,3.50
2019-01-12T17:47:32.288Z,3.50
2019-01-12T17:50:21.353Z,3.40
2019-01-12T17:53:11.630Z,3.50
2019-01-12T17:55:58.891Z,3.50
2019-01-12T17:58:46.533Z,3.40
2019-01-12T18:01:33.972Z,3.40
2019-01-12T18:04:21.572Z,3.40
2019-01-12T18:07:09.394Z,3.30
2019-01-12T18:09:57.294Z,3.30
2019-01-12T18:12:44.718Z,3.20
2019-01-12T18:15:32.157Z,3.20
2019-01-12T18:18:19.929Z,3.20
2019-01-12T18:21:07.506Z,3.10
2019-01-12T18:23:58.712Z,3.10
2019-01-12T18:26:56.539Z,3.00
2019-01-12T18:29:56.947Z,2.90
2019-01-12T18:32:43.702Z,2.80
2019-01-12T18:35:41.061Z,2.80
2019-01-12T18:38:34.016Z,2.70
2019-01-12T18:41:27.796Z,2.70
2019-01-12T18:44:16.052Z,2.60
2019-01-12T18:47:29.058Z,2.60
2019-01-12T18:50:32.162Z,2.60
2019-01-12T18:53:35.545Z,2.60
2019-01-12T18:56:24.832Z,2.60
2019-01-12T18:59:12.760Z,2.70
2019-01-12T19:02:00.197Z,2.70
2019-01-12T19:04:47.615Z,2.70
2019-01-12T19:07:35.232Z,2.70
2019-01-12T19:10:23.214Z,2.70
2019-01-12T19:13:10.502Z,2.70
2019-01-12T19:15:58.251Z,2.60
2019-01-12T19:18:45.721Z,2.60
2019-01-12T19:21:33.678Z,2.50
2019-01-12T19:24:21.731Z,2.50
2019-01-12T19:27:09.633Z,2.50
2019-01-12T19:29:57.073Z,2.50
2019-01-12T19:32:44.693Z,2.60
2019-01-12T19:35:32.076Z,2.60
2019-01-12T19:38:19.774Z,2.60
2019-01-12T19:41:07.665Z,2.70
2019-01-12T19:43:55.131Z,2.70
2019-01-12T19:46:42.671Z,2.70
2019-01-12T19:49:30.087Z,2.60
2019-01-12T19:52:18.224Z,2.60
2019-01-12T19:55:06.220Z,2.60
2019-01-12T19:57:53.468Z,2.60
2019-01-12T20:00:41.007Z,2.60
2019-01-12T20:03:28.803Z,2.50
2019-01-12T20:06:17.178Z,2.50
2019-01-12T20:09:08.634Z,2.50
2019-01-12T20:11:56.221Z,2.50
2019-01-12T20:14:43.532Z,2.50
2019-01-12T20:17:31.165Z,2.50
2019-01-12T20:20:19.203Z,2.50
2019-01-12T20:23:06.923Z,2.50
2019-01-12T20:25:54.910Z,2.50
2019-01-12T20:28:42.594Z,2.50
2019-01-12T20:32:08.638Z,2.50
2019-01-12T20:35:18.365Z,2.50
2019-01-12T20:38:24.753Z,2.50
2019-01-12T20:41:44.618Z,2.50
2019-01-12T20:45:11.876Z,2.40
2019-01-12T20:48:21.520Z,2.40
2019-01-12T20:52:08.971Z,2.40
2019-01-12T20:55:35.800Z,2.40
2019-01-12T20:58:44.079Z,2.40
2019-01-12T21:02:21.835Z,2.40
2019-01-12T21:05:34.540Z,2.40
2019-01-12T21:08:45.325Z,2.40
2019-01-12T21:12:18.812Z,2.40
2019-01-12T21:15:12.326Z,2.40
2019-01-12T21:18:00.189Z,2.40
2019-01-12T21:20:58.671Z,2.40
2019-01-12T21:23:47.963Z,2.40
2019-01-12T21:26:36.847Z,2.40
2019-01-12T21:29:35.275Z,2.40
2019-01-12T21:32:24.862Z,2.50
2019-01-12T21:35:15.144Z,2.40
2019-01-12T21:38:03.709Z,2.40
2019-01-12T21:41:00.168Z,2.50
2019-01-12T21:43:48.444Z,2.40
2019-01-12T21:46:36.771Z,2.40
2019-01-12T21:49:26.440Z,2.50
2019-01-12T21:52:14.172Z,2.50
2019-01-12T21:55:02.019Z,2.50
2019-01-12T21:57:49.979Z,2.50
2019-01-12T22:00:44.729Z,2.50
2019-01-12T22:03:32.580Z,2.50
2019-01-12T22:06:20.901Z,2.50
2019-01-12T22:09:13.344Z,2.50
2019-01-12T22:12:00.586Z,2.50
2019-01-12T22:14:49.424Z,2.50
2019-01-12T22:17:37.052Z,2.50
2019-01-12T22:20:27.753Z,2.50
2019-01-12T22:23:18.266Z,2.50
2019-01-12T22:26:30.993Z,2.40
2019-01-12T22:29:22.216Z,2.40
2019-01-12T22:32:12.775Z,2.40
2019-01-12T22:35:01.466Z,2.40
2019-01-12T22:37:53.684Z,2.40
2019-01-12T22:40:49.706Z,2.40
2019-01-12T22:43:44.217Z,2.50
2019-01-12T22:46:35.009Z,2.40
2019-01-12T22:49:27.450Z,2.50
2019-01-12T22:52:17.184Z,2.40
2019-01-12T22:55:08.529Z,2.50
2019-01-12T22:58:00.249Z,2.50
2019-01-12T23:01:44.523Z,2.60
2019-01-12T23:04:57.672Z,2.50
2019-01-12T23:07:46.100Z,2.50
2019-01-12T23:10:42.147Z,2.50
2019-01-12T23:13:32.597Z,2.50
2019-01-12T23:16:20.563Z,2.50
2019-01-12T23:19:08.930Z,2.50
2019-01-12T23:22:05.568Z,2.60
2019-01-12T23:24:53.486Z,2.60
2019-01-12T23:27:43.684Z,2.50
2019-01-12T23:30:32.859Z,2.50
2019-01-12T23:33:26.431Z,2.50
2019-01-12T23:36:16.826Z,2.60
2019-01-12T23:39:09.257Z,2.60
2019-01-12T23:42:02.626Z,2.60
2019-01-12T23:45:26.492Z,2.50
2019-01-12T23:48:16.280Z,2.50
2019-01-12T23:51:06.174Z,2.50
2019-01-12T23:53:55.774Z,2.50
2019-01-12T23:56:49.202Z,2.60
2019-01-12T23:59:52.397Z,2.50
